Latest Weather Observations for Swanbourne

IDW60801

Issued at 6:33 pm WST Monday 20 May 2019 (issued every 10 minutes, with the page automatically refreshed every 10 minutes)

About weather observations | Map of weather stations | Latest weather observations for WA | Other Formats
Station Details ID: 009215 Name: SWANBOURNE Lat: -31.96 Lon: 115.76 Height: 40.96 m
Data from the previous 72 hours. | See also: Recent months at Swanbourne
Date/Time
WST
Temp
°C
App
Temp
°C
Dew
Point
°C
Rel
Hum
%
Delta-T
°C
Wind Press
QNH
hPa
Press
MSL
hPa
Rain since
9am
mm
Dir  Spd
km/h
Gust
km/h
Spd
kts
Gust
kts
20/06:30pm 17.5 15.7 12.2 71 2.9 SW 13 22 7 12 - - 0.0
20/06:00pm 17.7 15.3 11.5 67 3.4 SW 15 20 8 11 - - 0.0
20/05:30pm 17.4 15.0 11.4 68 3.3 SW 15 20 8 11 - - 0.0
20/05:00pm 18.4 16.9 13.1 71 3.0 SW 13 20 7 11 - - 0.0
20/04:30pm 18.6 16.0 11.9 65 3.7 SW 17 24 9 13 - - 0.0
20/04:00pm 19.7 16.7 10.7 56 4.9 WSW 17 24 9 13 - - 0.0
20/03:30pm 19.7 16.9 11.5 59 4.5 WSW 17 24 9 13 - - 0.0
20/03:00pm 18.6 15.9 11.7 64 3.8 WSW 17 24 9 13 - - 0.0
20/02:30pm 18.9 16.3 11.9 64 3.9 SW 17 24 9 13 - - 0.0
20/02:00pm 20.2 16.7 10.3 53 5.4 WSW 19 26 10 14 - - 0.0
20/01:30pm 19.4 16.2 11.4 60 4.4 WSW 19 24 10 13 - - 0.0
20/01:00pm 20.0 16.9 11.5 58 4.7 WSW 19 26 10 14 - - 0.0
20/12:30pm 19.9 16.7 11.4 58 4.7 WSW 19 28 10 15 - - 0.0
20/12:00pm 20.2 17.1 10.3 53 5.4 WSW 17 22 9 12 - - 0.0
20/11:30am 20.1 16.7 11.3 57 4.8 WSW 20 30 11 16 - - 0.0
20/11:00am 20.2 18.2 12.7 62 4.2 WSW 15 20 8 11 - - 0.0
20/10:30am 19.1 16.7 12.6 66 3.6 WSW 17 26 9 14 - - 0.0
20/10:00am 19.3 16.9 12.6 65 3.8 WSW 17 24 9 13 - - 0.0
20/09:30am 18.8 15.9 13.0 69 3.3 WSW 20 28 11 15 - - 0.0
20/09:00am 18.1 15.1 12.5 70 3.1 WSW 20 30 11 16 - - 3.8
20/08:30am 17.9 15.1 14.4 80 2.0 WSW 22 32 12 17 - - 3.8
20/08:00am 17.9 16.3 16.4 91 0.9 WSW 20 28 11 15 - - 3.8
20/07:30am 17.8 16.6 17.5 98 0.2 WSW 20 32 11 17 - - 3.8
20/07:00am 17.7 16.5 17.5 99 0.1 WSW 20 30 11 16 - - 3.8
20/06:30am 17.4 16.6 17.2 99 0.1 WSW 17 24 9 13 - - 3.8
20/06:00am 17.2 16.8 17.2 100 0.0 SW 15 22 8 12 - - 3.8
20/05:30am 17.1 - - - - SSW 15 24 8 13 - - 3.6
20/05:00am 14.9 15.4 14.9 100 0.0 SE 6 9 3 5 - - 3.4
20/04:30am 15.4 16.0 15.4 100 0.0 N 6 13 3 7 - - 3.4
20/04:00am 14.7 13.6 14.4 98 0.2 NNE 13 17 7 9 - - 1.8
20/03:30am 15.4 14.2 12.9 85 1.4 NNE 11 17 6 9 - - 0.0
20/03:00am 15.3 13.9 12.1 81 1.7 N 11 17 6 9 - - 0.0
20/02:30am 15.0 13.7 11.4 79 1.9 N 9 15 5 8 - - 0.0
20/02:00am 14.9 13.1 10.7 76 2.2 NNE 11 15 6 8 - - 0.0
20/01:30am 15.0 13.0 10.0 72 2.6 N 11 17 6 9 - - 0.0
20/01:00am 15.0 12.3 8.9 67 3.1 NNE 13 19 7 10 - - 0.0
20/12:30am 14.8 12.4 8.7 67 3.1 NNE 11 17 6 9 - - 0.0
20/12:00am 14.9 12.3 9.5 70 2.8 NNE 13 19 7 10 - - 0.0
 
Date/Time
WST
Temp
°C
App
Temp
°C
Dew
Point
°C
Rel
Hum
%
Delta-T
°C
Wind Press
QNH
hPa
Press
MSL
hPa
Rain since
9am
mm
Dir  Spd
km/h
Gust
km/h
Spd
kts
Gust
kts
19/11:30pm 14.8 12.7 9.6 71 2.7 NNE 11 19 6 10 - - 0.0
19/11:00pm 14.5 12.3 9.3 71 2.7 NNE 11 17 6 9 - - 0.0
19/10:30pm 15.2 12.6 9.3 68 3.0 NNE 13 17 7 9 - - 0.0
19/10:00pm 15.3 13.1 9.4 68 3.0 N 11 15 6 8 - - 0.0
19/09:30pm 15.2 13.3 8.9 66 3.2 N 9 11 5 6 - - 0.0
19/09:00pm 16.4 14.2 9.3 63 3.7 N 11 13 6 7 - - 0.0
19/08:30pm 16.4 14.4 8.6 60 4.0 N 9 13 5 7 - - 0.0
19/08:00pm 16.4 14.3 8.1 58 4.2 NNW 9 11 5 6 - - 0.0
19/07:30pm 16.4 14.9 8.6 60 4.0 NNW 6 7 3 4 - - 0.0
19/07:00pm 16.0 15.0 8.7 62 3.7 WNW 4 6 2 3 - - 0.0
19/06:30pm 15.8 14.0 7.8 59 4.0 W 7 7 4 4 - - 0.0
19/06:00pm 15.7 14.0 7.5 58 4.1 W 6 7 3 4 - - 0.0
19/05:30pm 16.1 14.1 6.3 52 4.8 WNW 6 6 3 3 - - 0.0
19/05:00pm 17.6 15.4 5.2 44 6.0 NW 6 9 3 5 - - 0.0
19/04:30pm 18.5 16.0 3.9 38 6.9 NNW 6 9 3 5 - - 0.0
19/04:00pm 19.6 17.4 5.3 39 7.0 WNW 6 9 3 5 - - 0.0
19/03:30pm 19.5 17.0 4.0 36 7.4 WNW 6 9 3 5 - - 0.0
19/03:00pm 18.2 15.7 4.7 41 6.5 W 7 11 4 6 - - 0.0
19/02:30pm 18.4 15.2 3.1 36 7.1 NW 9 13 5 7 - - 0.0
19/02:00pm 19.7 16.3 3.8 35 7.6 NW 11 17 6 9 - - 0.0
19/01:30pm 19.7 16.4 2.6 32 7.9 NW 9 17 5 9 - - 0.0
19/01:00pm 19.3 15.9 1.8 31 8.0 N 9 17 5 9 - - 0.0
19/12:30pm 18.3 14.9 1.8 33 7.5 N 9 15 5 8 - - 0.0
19/12:00pm 18.4 15.1 2.3 34 7.4 N 9 22 5 12 - - 0.0
19/11:30am 16.9 12.8 2.5 38 6.5 N 13 24 7 13 - - 0.0
19/11:00am 17.1 13.7 3.8 41 6.2 NE 11 19 6 10 - - 0.0
19/10:30am 15.8 12.0 3.9 45 5.5 NE 13 20 7 11 - - 0.0
19/10:00am 14.2 10.8 3.9 50 4.7 NE 11 19 6 10 - - 0.0
19/09:30am 13.1 9.5 4.8 57 3.8 NE 13 20 7 11 - - 0.0
19/09:00am 11.0 7.0 4.9 66 2.8 NE 15 28 8 15 - - 0.0
19/08:30am 9.2 5.8 5.8 79 1.6 ENE 13 20 7 11 - - 0.0
19/08:00am 7.2 3.2 6.5 95 0.3 ENE 17 20 9 11 - - 0.0
19/07:30am 6.0 2.2 5.7 98 0.1 ENE 15 20 8 11 - - 0.0
19/07:00am 5.8 1.6 5.5 98 0.1 ENE 17 24 9 13 - - 0.0
19/06:30am 5.9 1.7 5.6 98 0.1 ENE 17 22 9 12 - - 0.0
19/06:00am 5.6 1.7 5.3 98 0.1 ENE 15 20 8 11 - - 0.0
19/05:30am 5.6 1.7 5.5 99 0.0 ENE 15 19 8 10 - - 0.0
19/05:00am 5.6 2.1 5.5 99 0.0 ENE 13 17 7 9 - - 0.0
19/04:30am 5.5 1.6 5.4 99 0.0 ENE 15 19 8 10 - - 0.0
19/04:00am 5.9 2.1 5.6 98 0.1 ENE 15 19 8 10 - - 0.0
19/03:30am 6.3 2.5 6.0 98 0.1 ENE 15 19 8 10 - - 0.0
19/03:00am 6.5 3.2 6.2 98 0.1 ENE 13 17 7 9 - - 0.0
19/02:30am 6.9 3.3 6.6 98 0.1 ENE 15 20 8 11 - - 0.0
19/02:00am 6.8 3.5 6.5 98 0.1 ENE 13 19 7 10 - - 0.0
19/01:30am 7.1 3.9 6.8 98 0.1 ENE 13 17 7 9 - - 0.0
19/01:00am 7.2 4.4 6.9 98 0.1 ENE 11 15 6 8 - - 0.0
19/12:30am 7.4 4.6 7.1 98 0.1 ENE 11 15 6 8 - - 0.0
19/12:00am 7.7 5.1 7.6 99 0.0 ENE 11 13 6 7 - - 0.0
 
Date/Time
WST
Temp
°C
App
Temp
°C
Dew
Point
°C
Rel
Hum
%
Delta-T
°C
Wind Press
QNH
hPa
Press
MSL
hPa
Rain since
9am
mm
Dir  Spd
km/h
Gust
km/h
Spd
kts
Gust
kts
18/11:30pm 8.3 6.1 8.0 98 0.1 ENE 9 13 5 7 - - 0.0
18/11:00pm 9.6 8.1 9.3 98 0.1 E 7 9 4 5 - - 0.0
18/10:30pm 9.8 7.6 9.5 98 0.1 E 11 11 6 6 - - 0.0
18/10:00pm 10.0 8.3 9.7 98 0.2 E 9 13 5 7 - - 0.0
18/09:30pm 10.8 9.3 10.5 98 0.2 E 9 11 5 6 - - 0.0
18/09:00pm 11.4 9.7 10.0 91 0.7 ESE 9 11 5 6 - - 0.0
18/08:30pm 11.7 10.2 9.3 85 1.2 ESE 7 9 4 5 - - 0.0
18/08:00pm 12.3 10.8 9.1 81 1.6 SE 7 9 4 5 - - 0.0
18/07:30pm 12.2 10.5 8.5 78 1.8 SE 7 9 4 5 - - 0.0
18/07:00pm 12.4 10.2 7.9 74 2.2 SE 9 11 5 6 - - 0.0
18/06:30pm 12.3 10.3 7.0 70 2.5 S 7 9 4 5 - - 0.0
18/06:00pm 12.6 10.6 7.1 69 2.7 S 7 9 4 5 - - 0.0
18/05:30pm 13.1 11.1 6.9 66 3.0 SSW 7 9 4 5 - - 0.0
18/05:00pm 14.1 11.7 6.9 62 3.5 SW 9 15 5 8 - - 0.0
18/04:30pm 14.7 12.1 6.3 57 4.1 SSW 9 15 5 8 - - 0.0
18/04:00pm 15.2 12.6 6.2 55 4.4 SW 9 15 5 8 - - 0.0
18/03:30pm 15.9 13.3 6.3 53 4.7 WSW 9 15 5 8 - - 0.0
18/03:00pm 15.5 12.9 6.0 53 4.6 WSW 9 15 5 8 - - 0.0
18/02:30pm 14.9 12.2 5.7 54 4.4 WSW 9 13 5 7 - - 0.0
18/02:00pm 15.6 12.6 6.1 53 4.6 SW 11 15 6 8 - - 0.0
18/01:30pm 15.2 13.0 6.2 55 4.4 S 7 13 4 7 - - 0.0
18/01:00pm 15.1 11.7 4.2 48 5.0 SE 11 17 6 9 - - 0.0
18/12:30pm 15.2 13.1 6.0 54 4.4 S 6 13 3 7 - - 0.0
18/12:00pm 15.0 13.1 4.7 50 4.8 NE 4 9 2 5 - - 0.0
18/11:30am 13.8 11.3 4.9 55 4.1 ESE 7 13 4 7 - - 0.0
18/11:00am 13.6 11.2 5.3 57 3.9 NNE 7 13 4 7 - - 0.0
18/10:30am 13.7 11.8 6.6 62 3.4 ENE 6 11 3 6 - - 0.0
18/10:00am 12.4 10.3 6.7 68 2.7 ENE 7 11 4 6 - - 0.0
18/09:30am 11.6 9.3 7.5 76 2.0 ENE 9 13 5 7 - - 0.0
18/09:00am 9.9 7.9 8.5 91 0.7 E 9 13 5 7 - - 0.0
18/08:30am 8.4 6.3 8.1 98 0.1 ENE 9 13 5 7 - - 0.0
18/08:00am 6.9 4.9 6.9 100 0.0 ENE 7 11 4 6 - - 0.0
18/07:30am 5.4 2.7 5.4 100 0.0 ENE 9 11 5 6 - - 0.0
18/07:00am 5.5 2.4 5.5 100 0.0 ENE 11 13 6 7 - - 0.0
18/06:30am 5.0 1.8 5.0 100 0.0 ENE 11 13 6 7 - - 0.0
18/06:00am 5.4 2.7 5.4 100 0.0 ENE 9 11 5 6 - - 0.0
18/05:30am 5.5 3.2 5.5 100 0.0 ENE 7 9 4 5 - - 0.0
18/05:00am 6.0 3.9 5.9 99 0.0 ENE 6 7 3 4 - - 0.0
18/04:30am 7.2 4.8 6.9 98 0.1 E 9 11 5 6 - - 0.0
18/04:00am 7.2 4.0 6.9 98 0.1 ESE 13 15 7 8 - - 0.0
18/03:30am 7.5 4.8 7.2 98 0.1 E 11 15 6 8 - - 0.0
18/03:00am 7.4 4.2 7.0 97 0.2 E 13 13 7 7 - - 0.0
18/02:30am 7.3 4.5 6.9 97 0.2 E 11 13 6 7 - - 0.0
18/02:00am 6.9 4.0 6.6 98 0.1 E 11 13 6 7 - - 0.0
18/01:30am 7.3 4.5 7.0 98 0.1 E 11 13 6 7 - - 0.0
18/01:00am 8.1 5.5 7.7 97 0.2 E 11 11 6 6 - - 0.0
18/12:30am 8.5 5.9 7.6 94 0.4 ESE 11 13 6 7 - - 0.0
18/12:00am 8.8 6.2 7.6 92 0.6 ESE 11 11 6 6 - - 0.0
 
Date/Time
WST
Temp
°C
App
Temp
°C
Dew
Point
°C
Rel
Hum
%
Delta-T
°C
Wind Press
QNH
hPa
Press
MSL
hPa
Rain since
9am
mm
Dir  Spd
km/h
Gust
km/h
Spd
kts
Gust
kts
17/11:30pm 8.9 6.3 7.8 93 0.5 E 11 11 6 6 - - 0.0
17/11:00pm 9.1 6.6 6.4 83 1.3 ESE 9 11 5 6 - - 0.0
17/10:30pm 9.9 7.3 5.9 76 1.8 ESE 9 9 5 5 - - 0.0
17/10:00pm 10.4 7.9 4.5 67 2.6 SE 7 9 4 5 - - 0.0
17/09:30pm 10.9 8.0 4.4 64 2.9 SE 9 11 5 6 - - 0.0
17/09:00pm 11.2 8.6 4.4 63 3.1 ESE 7 7 4 4 - - 0.0
17/08:30pm 11.7 9.1 4.0 59 3.5 ESE 7 9 4 5 - - 0.0
17/08:00pm 11.7 9.2 3.7 58 3.6 SE 6 6 3 3 - - 0.0
17/07:30pm 11.7 9.6 3.7 58 3.6 SE 4 6 2 3 - - 0.0
17/07:00pm 12.1 9.6 3.6 56 3.8 SE 6 6 3 3 - - 0.0

Other formats

Comma delimited format used in spreadsheet applications
http://www.bom.gov.au/fwo/IDW60801/IDW60801.94614.axf

JavaScript Object Notation format (JSON) in row-major order
http://www.bom.gov.au/fwo/IDW60801/IDW60801.94614.json

Data quality

Most of these data are generated automatically and are frequently updated. Quality checks on data are not normally performed. It is possible for incorrect values to appear. Refer to information at About Latest Weather Observations and please check the disclaimer before using these data.